sensor_id;sensor_type;location;lat;lon;timestamp;temperature;humidity
6054;DHT22;3055;50.886;14.814;2022-08-19T00:01:57;22.50;17.90
6054;DHT22;3055;50.886;14.814;2022-08-19T00:04:26;22.30;99.90
6054;DHT22;3055;50.886;14.814;2022-08-19T00:06:54;22.30;99.90
6054;DHT22;3055;50.886;14.814;2022-08-19T00:09:23;22.30;1.10
6054;DHT22;3055;50.886;14.814;2022-08-19T00:11:50;22.30;1.00
6054;DHT22;3055;50.886;14.814;2022-08-19T00:14:17;22.30;1.00
6054;DHT22;3055;50.886;14.814;2022-08-19T00:16:48;22.40;99.90
6054;DHT22;3055;50.886;14.814;2022-08-19T00:19:17;22.40;99.90
6054;DHT22;3055;50.886;14.814;2022-08-19T00:21:44;22.40;99.90
6054;DHT22;3055;50.886;14.814;2022-08-19T00:24:13;22.30;99.90
6054;DHT22;3055;50.886;14.814;2022-08-19T00:26:41;22.30;99.90
6054;DHT22;3055;50.886;14.814;2022-08-19T00:29:11;22.30;99.90
6054;DHT22;3055;50.886;14.814;2022-08-19T00:31:38;22.30;99.90
6054;DHT22;3055;50.886;14.814;2022-08-19T00:34:07;22.50;99.90
6054;DHT22;3055;50.886;14.814;2022-08-19T00:36:35;22.70;65.90
6054;DHT22;3055;50.886;14.814;2022-08-19T00:39:04;22.90;43.10
6054;DHT22;3055;50.886;14.814;2022-08-19T00:41:31;22.90;24.00
6054;DHT22;3055;50.886;14.814;2022-08-19T00:44:00;22.90;15.70
6054;DHT22;3055;50.886;14.814;2022-08-19T00:46:28;22.80;16.50
6054;DHT22;3055;50.886;14.814;2022-08-19T00:48:56;22.70;22.20
6054;DHT22;3055;50.886;14.814;2022-08-19T00:51:26;22.70;18.00
6054;DHT22;3055;50.886;14.814;2022-08-19T00:53:55;22.60;27.40
6054;DHT22;3055;50.886;14.814;2022-08-19T00:56:23;22.50;37.50
6054;DHT22;3055;50.886;14.814;2022-08-19T00:58:52;22.40;43.90
6054;DHT22;3055;50.886;14.814;2022-08-19T01:01:19;22.30;64.50
6054;DHT22;3055;50.886;14.814;2022-08-19T01:03:46;22.20;69.50
6054;DHT22;3055;50.886;14.814;2022-08-19T01:06:13;22.20;74.40
6054;DHT22;3055;50.886;14.814;2022-08-19T01:08:42;22.10;67.00
6054;DHT22;3055;50.886;14.814;2022-08-19T01:11:09;22.10;69.80
6054;DHT22;3055;50.886;14.814;2022-08-19T01:13:36;22.10;63.50
6054;DHT22;3055;50.886;14.814;2022-08-19T01:16:06;22.00;62.20
6054;DHT22;3055;50.886;14.814;2022-08-19T01:18:38;21.90;72.20
6054;DHT22;3055;50.886;14.814;2022-08-19T01:21:10;21.90;81.00
6054;DHT22;3055;50.886;14.814;2022-08-19T01:23:43;21.80;87.10
6054;DHT22;3055;50.886;14.814;2022-08-19T01:26:12;21.70;90.00
6054;DHT22;3055;50.886;14.814;2022-08-19T01:28:40;21.70;85.40
6054;DHT22;3055;50.886;14.814;2022-08-19T01:31:10;21.90;68.70
6054;DHT22;3055;50.886;14.814;2022-08-19T01:33:38;22.30;47.60
6054;DHT22;3055;50.886;14.814;2022-08-19T01:36:09;22.30;29.20
6054;DHT22;3055;50.886;14.814;2022-08-19T01:38:39;22.40;29.90
6054;DHT22;3055;50.886;14.814;2022-08-19T01:41:08;22.40;28.10
6054;DHT22;3055;50.886;14.814;2022-08-19T01:43:36;22.40;20.40
6054;DHT22;3055;50.886;14.814;2022-08-19T01:46:04;22.50;25.10
6054;DHT22;3055;50.886;14.814;2022-08-19T01:48:34;22.50;16.40
6054;DHT22;3055;50.886;14.814;2022-08-19T01:51:01;22.50;15.40
6054;DHT22;3055;50.886;14.814;2022-08-19T01:53:29;22.60;13.30
6054;DHT22;3055;50.886;14.814;2022-08-19T01:55:56;22.70;10.00
6054;DHT22;3055;50.886;14.814;2022-08-19T01:58:29;22.80;4.20
6054;DHT22;3055;50.886;14.814;2022-08-19T02:00:57;22.90;2.50
6054;DHT22;3055;50.886;14.814;2022-08-19T02:03:25;22.90;1.00
6054;DHT22;3055;50.886;14.814;2022-08-19T02:05:56;22.90;1.00
6054;DHT22;3055;50.886;14.814;2022-08-19T02:08:25;22.90;1.00
6054;DHT22;3055;50.886;14.814;2022-08-19T02:10:53;22.80;1.00
6054;DHT22;3055;50.886;14.814;2022-08-19T02:13:20;22.80;1.00
6054;DHT22;3055;50.886;14.814;2022-08-19T02:15:48;22.80;1.00
6054;DHT22;3055;50.886;14.814;2022-08-19T02:18:15;22.70;1.00
6054;DHT22;3055;50.886;14.814;2022-08-19T02:20:44;22.60;2.10
6054;DHT22;3055;50.886;14.814;2022-08-19T02:23:13;22.60;23.80
6054;DHT22;3055;50.886;14.814;2022-08-19T02:25:41;22.40;89.50
6054;DHT22;3055;50.886;14.814;2022-08-19T02:28:08;22.20;99.90
6054;DHT22;3055;50.886;14.814;2022-08-19T02:30:35;22.10;99.90
6054;DHT22;3055;50.886;14.814;2022-08-19T02:33:03;21.90;1.00
6054;DHT22;3055;50.886;14.814;2022-08-19T02:35:31;21.80;1.00
6054;DHT22;3055;50.886;14.814;2022-08-19T02:37:58;21.60;99.90
6054;DHT22;3055;50.886;14.814;2022-08-19T02:40:48;21.40;1.00
6054;DHT22;3055;50.886;14.814;2022-08-19T02:43:16;21.40;99.90
6054;DHT22;3055;50.886;14.814;2022-08-19T02:45:43;21.30;61.30
6054;DHT22;3055;50.886;14.814;2022-08-19T02:48:11;21.20;99.90
6054;DHT22;3055;50.886;14.814;2022-08-19T02:50:39;21.00;1.00
6054;DHT22;3055;50.886;14.814;2022-08-19T02:53:06;21.00;1.00
6054;DHT22;3055;50.886;14.814;2022-08-19T02:55:34;21.00;1.00
6054;DHT22;3055;50.886;14.814;2022-08-19T02:58:01;21.00;1.00
6054;DHT22;3055;50.886;14.814;2022-08-19T03:00:28;20.90;1.00
6054;DHT22;3055;50.886;14.814;2022-08-19T03:02:55;20.90;1.00
6054;DHT22;3055;50.886;14.814;2022-08-19T03:05:24;20.90;1.00
6054;DHT22;3055;50.886;14.814;2022-08-19T03:07:51;20.80;1.00
6054;DHT22;3055;50.886;14.814;2022-08-19T03:10:18;20.70;1.00
6054;DHT22;3055;50.886;14.814;2022-08-19T03:12:45;20.70;1.00
6054;DHT22;3055;50.886;14.814;2022-08-19T03:15:13;20.70;1.00
6054;DHT22;3055;50.886;14.814;2022-08-19T03:17:39;20.80;1.00
6054;DHT22;3055;50.886;14.814;2022-08-19T03:20:07;20.80;1.00
6054;DHT22;3055;50.886;14.814;2022-08-19T03:22:36;20.90;1.00
6054;DHT22;3055;50.886;14.814;2022-08-19T03:25:03;21.00;1.00
6054;DHT22;3055;50.886;14.814;2022-08-19T03:27:30;21.10;1.00
6054;DHT22;3055;50.886;14.814;2022-08-19T03:29:57;21.30;1.00
6054;DHT22;3055;50.886;14.814;2022-08-19T03:32:24;21.20;1.00
6054;DHT22;3055;50.886;14.814;2022-08-19T03:34:51;21.20;1.00
6054;DHT22;3055;50.886;14.814;2022-08-19T03:37:18;21.20;1.00
6054;DHT22;3055;50.886;14.814;2022-08-19T03:39:47;21.20;1.00
6054;DHT22;3055;50.886;14.814;2022-08-19T03:42:13;21.20;1.00
6054;DHT22;3055;50.886;14.814;2022-08-19T03:44:42;21.20;1.00
6054;DHT22;3055;50.886;14.814;2022-08-19T03:47:10;21.10;1.00
6054;DHT22;3055;50.886;14.814;2022-08-19T03:49:41;21.10;1.00
6054;DHT22;3055;50.886;14.814;2022-08-19T03:52:08;21.10;1.00
6054;DHT22;3055;50.886;14.814;2022-08-19T03:54:36;21.00;1.00
6054;DHT22;3055;50.886;14.814;2022-08-19T03:57:06;21.00;1.00
6054;DHT22;3055;50.886;14.814;2022-08-19T03:59:35;20.90;1.00
6054;DHT22;3055;50.886;14.814;2022-08-19T04:02:07;20.90;1.00
6054;DHT22;3055;50.886;14.814;2022-08-19T04:04:35;21.00;1.00
6054;DHT22;3055;50.886;14.814;2022-08-19T04:07:03;20.90;1.00
6054;DHT22;3055;50.886;14.814;2022-08-19T04:09:30;20.90;1.00
6054;DHT22;3055;50.886;14.814;2022-08-19T04:11:58;20.90;1.00
6054;DHT22;3055;50.886;14.814;2022-08-19T04:14:29;21.00;1.00
6054;DHT22;3055;50.886;14.814;2022-08-19T04:16:56;21.00;1.00
6054;DHT22;3055;50.886;14.814;2022-08-19T04:19:23;21.00;1.00
6054;DHT22;3055;50.886;14.814;2022-08-19T04:21:53;21.00;1.00
6054;DHT22;3055;50.886;14.814;2022-08-19T04:24:21;21.00;1.00
6054;DHT22;3055;50.886;14.814;2022-08-19T04:26:49;21.00;1.00
6054;DHT22;3055;50.886;14.814;2022-08-19T04:29:18;21.00;1.00
6054;DHT22;3055;50.886;14.814;2022-08-19T04:31:49;21.00;1.00
6054;DHT22;3055;50.886;14.814;2022-08-19T04:34:17;21.00;1.00
6054;DHT22;3055;50.886;14.814;2022-08-19T04:36:48;21.00;1.00
6054;DHT22;3055;50.886;14.814;2022-08-19T04:39:19;21.10;1.00
6054;DHT22;3055;50.886;14.814;2022-08-19T04:41:48;21.10;1.00
6054;DHT22;3055;50.886;14.814;2022-08-19T04:44:33;21.20;1.00
6054;DHT22;3055;50.886;14.814;2022-08-19T04:47:03;21.30;1.00
6054;DHT22;3055;50.886;14.814;2022-08-19T04:49:31;21.40;1.00
6054;DHT22;3055;50.886;14.814;2022-08-19T04:51:58;21.50;1.00
6054;DHT22;3055;50.886;14.814;2022-08-19T04:54:25;21.60;1.00
6054;DHT22;3055;50.886;14.814;2022-08-19T04:56:53;21.60;1.00
6054;DHT22;3055;50.886;14.814;2022-08-19T04:59:21;21.60;1.00
6054;DHT22;3055;50.886;14.814;2022-08-19T05:01:48;21.70;1.00
6054;DHT22;3055;50.886;14.814;2022-08-19T05:04:18;21.80;99.90
6054;DHT22;3055;50.886;14.814;2022-08-19T05:06:46;21.90;99.90
6054;DHT22;3055;50.886;14.814;2022-08-19T05:09:15;22.10;99.90
6054;DHT22;3055;50.886;14.814;2022-08-19T05:11:42;22.20;1.00
6054;DHT22;3055;50.886;14.814;2022-08-19T05:14:10;22.30;99.90
6054;DHT22;3055;50.886;14.814;2022-08-19T05:16:38;22.30;45.40
6054;DHT22;3055;50.886;14.814;2022-08-19T05:19:05;22.30;99.90
6054;DHT22;3055;50.886;14.814;2022-08-19T05:21:51;22.30;99.90
6054;DHT22;3055;50.886;14.814;2022-08-19T05:24:36;22.40;99.90
6054;DHT22;3055;50.886;14.814;2022-08-19T05:27:04;22.50;1.00
6054;DHT22;3055;50.886;14.814;2022-08-19T05:29:32;22.50;1.00
6054;DHT22;3055;50.886;14.814;2022-08-19T05:32:00;22.70;99.90
6054;DHT22;3055;50.886;14.814;2022-08-19T05:34:28;22.70;1.00
6054;DHT22;3055;50.886;14.814;2022-08-19T05:36:58;22.80;1.00
6054;DHT22;3055;50.886;14.814;2022-08-19T05:39:29;22.80;1.00
6054;DHT22;3055;50.886;14.814;2022-08-19T05:41:58;22.90;1.00
6054;DHT22;3055;50.886;14.814;2022-08-19T05:44:26;23.00;1.00
6054;DHT22;3055;50.886;14.814;2022-08-19T05:46:57;23.10;1.00
6054;DHT22;3055;50.886;14.814;2022-08-19T05:49:26;23.20;99.90
6054;DHT22;3055;50.886;14.814;2022-08-19T05:51:54;23.30;99.90
6054;DHT22;3055;50.886;14.814;2022-08-19T05:54:23;23.40;99.90
6054;DHT22;3055;50.886;14.814;2022-08-19T05:56:51;23.50;99.90
6054;DHT22;3055;50.886;14.814;2022-08-19T05:59:20;23.60;99.90
6054;DHT22;3055;50.886;14.814;2022-08-19T06:01:48;23.70;23.00
6054;DHT22;3055;50.886;14.814;2022-08-19T06:04:18;23.60;1.00
6054;DHT22;3055;50.886;14.814;2022-08-19T06:06:45;23.60;4.70
6054;DHT22;3055;50.886;14.814;2022-08-19T06:09:12;23.70;1.00
6054;DHT22;3055;50.886;14.814;2022-08-19T06:11:43;23.60;1.00
6054;DHT22;3055;50.886;14.814;2022-08-19T06:14:12;23.60;1.00
6054;DHT22;3055;50.886;14.814;2022-08-19T06:16:40;23.80;1.00
6054;DHT22;3055;50.886;14.814;2022-08-19T06:19:09;23.80;1.00
6054;DHT22;3055;50.886;14.814;2022-08-19T06:21:38;23.80;1.00
6054;DHT22;3055;50.886;14.814;2022-08-19T06:24:07;24.00;1.00
6054;DHT22;3055;50.886;14.814;2022-08-19T06:26:36;24.20;1.00
6054;DHT22;3055;50.886;14.814;2022-08-19T06:29:06;24.40;1.00
6054;DHT22;3055;50.886;14.814;2022-08-19T06:31:34;24.50;1.00
6054;DHT22;3055;50.886;14.814;2022-08-19T06:34:03;24.50;99.90
6054;DHT22;3055;50.886;14.814;2022-08-19T06:36:32;24.60;99.90
6054;DHT22;3055;50.886;14.814;2022-08-19T06:39:00;24.70;99.90
6054;DHT22;3055;50.886;14.814;2022-08-19T06:41:28;24.80;99.90
6054;DHT22;3055;50.886;14.814;2022-08-19T06:43:56;25.00;99.90
6054;DHT22;3055;50.886;14.814;2022-08-19T06:46:24;25.20;99.90
6054;DHT22;3055;50.886;14.814;2022-08-19T06:48:52;25.30;99.90
6054;DHT22;3055;50.886;14.814;2022-08-19T06:51:21;25.40;99.90
6054;DHT22;3055;50.886;14.814;2022-08-19T06:53:51;25.50;99.90
6054;DHT22;3055;50.886;14.814;2022-08-19T06:56:22;25.60;99.90
6054;DHT22;3055;50.886;14.814;2022-08-19T06:58:51;25.60;99.90
6054;DHT22;3055;50.886;14.814;2022-08-19T07:01:19;25.30;99.90
6054;DHT22;3055;50.886;14.814;2022-08-19T07:03:47;25.10;99.90
6054;DHT22;3055;50.886;14.814;2022-08-19T07:06:16;25.00;99.90
6054;DHT22;3055;50.886;14.814;2022-08-19T07:08:46;24.90;99.90
6054;DHT22;3055;50.886;14.814;2022-08-19T07:11:15;24.70;99.90
6054;DHT22;3055;50.886;14.814;2022-08-19T07:13:44;24.60;99.90
6054;DHT22;3055;50.886;14.814;2022-08-19T07:16:14;24.40;99.90
6054;DHT22;3055;50.886;14.814;2022-08-19T07:18:41;24.20;99.90
6054;DHT22;3055;50.886;14.814;2022-08-19T07:21:13;24.10;1.00
6054;DHT22;3055;50.886;14.814;2022-08-19T07:23:41;23.90;1.00
6054;DHT22;3055;50.886;14.814;2022-08-19T07:26:09;23.70;99.90
6054;DHT22;3055;50.886;14.814;2022-08-19T07:28:37;23.60;1.00
6054;DHT22;3055;50.886;14.814;2022-08-19T07:31:05;23.50;1.00
6054;DHT22;3055;50.886;14.814;2022-08-19T07:33:33;23.60;1.00
6054;DHT22;3055;50.886;14.814;2022-08-19T07:36:03;23.70;1.00
6054;DHT22;3055;50.886;14.814;2022-08-19T07:38:32;24.00;99.90
6054;DHT22;3055;50.886;14.814;2022-08-19T07:41:00;24.30;99.90
6054;DHT22;3055;50.886;14.814;2022-08-19T07:43:28;24.60;1.00
6054;DHT22;3055;50.886;14.814;2022-08-19T07:45:55;24.80;1.00
6054;DHT22;3055;50.886;14.814;2022-08-19T07:48:22;25.00;1.00
6054;DHT22;3055;50.886;14.814;2022-08-19T07:50:51;25.20;1.00
6054;DHT22;3055;50.886;14.814;2022-08-19T07:53:18;25.60;99.90
6054;DHT22;3055;50.886;14.814;2022-08-19T07:55:47;25.70;99.90
6054;DHT22;3055;50.886;14.814;2022-08-19T07:58:16;25.80;99.90
6054;DHT22;3055;50.886;14.814;2022-08-19T08:00:44;25.80;99.90
6054;DHT22;3055;50.886;14.814;2022-08-19T08:03:13;25.70;99.90
6054;DHT22;3055;50.886;14.814;2022-08-19T08:05:40;25.60;99.90
6054;DHT22;3055;50.886;14.814;2022-08-19T08:08:24;25.60;99.90
6054;DHT22;3055;50.886;14.814;2022-08-19T08:11:11;25.30;99.90
6054;DHT22;3055;50.886;14.814;2022-08-19T08:13:38;25.20;99.90
6054;DHT22;3055;50.886;14.814;2022-08-19T08:16:06;25.20;99.90
6054;DHT22;3055;50.886;14.814;2022-08-19T08:18:34;25.20;99.90
6054;DHT22;3055;50.886;14.814;2022-08-19T08:21:07;25.30;99.90
6054;DHT22;3055;50.886;14.814;2022-08-19T08:23:34;25.40;99.90
6054;DHT22;3055;50.886;14.814;2022-08-19T08:26:01;25.50;99.90
6054;DHT22;3055;50.886;14.814;2022-08-19T08:28:31;25.70;99.90
6054;DHT22;3055;50.886;14.814;2022-08-19T08:30:58;25.90;99.90
6054;DHT22;3055;50.886;14.814;2022-08-19T08:33:27;26.20;99.90
6054;DHT22;3055;50.886;14.814;2022-08-19T08:35:55;26.30;99.90
6054;DHT22;3055;50.886;14.814;2022-08-19T08:38:22;26.30;99.90
6054;DHT22;3055;50.886;14.814;2022-08-19T08:40:52;26.10;99.90
6054;DHT22;3055;50.886;14.814;2022-08-19T08:43:26;26.00;99.90
6054;DHT22;3055;50.886;14.814;2022-08-19T08:46:00;25.80;99.90
6054;DHT22;3055;50.886;14.814;2022-08-19T08:48:36;25.80;99.90
6054;DHT22;3055;50.886;14.814;2022-08-19T08:51:10;25.80;99.90
6054;DHT22;3055;50.886;14.814;2022-08-19T08:53:38;25.90;99.90
6054;DHT22;3055;50.886;14.814;2022-08-19T08:56:06;26.10;99.90
6054;DHT22;3055;50.886;14.814;2022-08-19T08:58:45;26.30;99.90
6054;DHT22;3055;50.886;14.814;2022-08-19T09:01:14;26.40;99.90
6054;DHT22;3055;50.886;14.814;2022-08-19T09:03:42;26.50;99.90
6054;DHT22;3055;50.886;14.814;2022-08-19T09:06:14;26.30;99.90
6054;DHT22;3055;50.886;14.814;2022-08-19T09:08:49;26.10;99.90
6054;DHT22;3055;50.886;14.814;2022-08-19T09:11:23;25.80;99.90
6054;DHT22;3055;50.886;14.814;2022-08-19T09:14:02;25.60;99.90
6054;DHT22;3055;50.886;14.814;2022-08-19T09:16:35;25.50;99.90
6054;DHT22;3055;50.886;14.814;2022-08-19T09:19:06;25.50;99.90
6054;DHT22;3055;50.886;14.814;2022-08-19T09:21:34;25.40;99.90
6054;DHT22;3055;50.886;14.814;2022-08-19T09:24:02;25.40;99.90
6054;DHT22;3055;50.886;14.814;2022-08-19T09:26:30;25.30;99.90
6054;DHT22;3055;50.886;14.814;2022-08-19T09:28:58;25.00;99.90
6054;DHT22;3055;50.886;14.814;2022-08-19T09:31:29;24.80;99.90
6054;DHT22;3055;50.886;14.814;2022-08-19T09:33:57;24.70;99.90
6054;DHT22;3055;50.886;14.814;2022-08-19T09:36:27;24.60;99.90
6054;DHT22;3055;50.886;14.814;2022-08-19T09:38:58;24.60;99.90
6054;DHT22;3055;50.886;14.814;2022-08-19T09:41:27;24.70;99.90
6054;DHT22;3055;50.886;14.814;2022-08-19T09:43:56;24.70;99.90
6054;DHT22;3055;50.886;14.814;2022-08-19T09:46:25;24.90;99.90
6054;DHT22;3055;50.886;14.814;2022-08-19T09:48:52;25.10;99.90
6054;DHT22;3055;50.886;14.814;2022-08-19T09:51:22;25.30;99.90
6054;DHT22;3055;50.886;14.814;2022-08-19T09:53:51;25.40;99.90
6054;DHT22;3055;50.886;14.814;2022-08-19T09:56:21;25.40;99.90
6054;DHT22;3055;50.886;14.814;2022-08-19T09:58:48;25.30;99.90
6054;DHT22;3055;50.886;14.814;2022-08-19T10:01:17;25.20;99.90
6054;DHT22;3055;50.886;14.814;2022-08-19T10:03:47;25.10;99.90
6054;DHT22;3055;50.886;14.814;2022-08-19T10:06:14;24.90;99.90
6054;DHT22;3055;50.886;14.814;2022-08-19T10:08:43;24.90;99.90
6054;DHT22;3055;50.886;14.814;2022-08-19T10:11:11;24.80;99.90
6054;DHT22;3055;50.886;14.814;2022-08-19T10:13:39;24.90;99.90
6054;DHT22;3055;50.886;14.814;2022-08-19T10:16:09;24.80;99.90
6054;DHT22;3055;50.886;14.814;2022-08-19T10:18:37;24.90;99.90
6054;DHT22;3055;50.886;14.814;2022-08-19T10:21:06;25.10;99.90
6054;DHT22;3055;50.886;14.814;2022-08-19T10:23:36;25.20;99.90
6054;DHT22;3055;50.886;14.814;2022-08-19T10:26:06;25.50;99.90
6054;DHT22;3055;50.886;14.814;2022-08-19T10:28:34;25.80;99.90
6054;DHT22;3055;50.886;14.814;2022-08-19T10:31:07;25.90;99.90
6054;DHT22;3055;50.886;14.814;2022-08-19T10:33:35;25.80;99.90
6054;DHT22;3055;50.886;14.814;2022-08-19T10:36:03;25.80;99.90
6054;DHT22;3055;50.886;14.814;2022-08-19T10:38:30;26.00;99.90
6054;DHT22;3055;50.886;14.814;2022-08-19T10:41:08;26.30;99.90
6054;DHT22;3055;50.886;14.814;2022-08-19T10:43:35;26.50;99.90
6054;DHT22;3055;50.886;14.814;2022-08-19T10:46:04;26.50;99.90
6054;DHT22;3055;50.886;14.814;2022-08-19T10:48:32;26.70;99.90
6054;DHT22;3055;50.886;14.814;2022-08-19T10:51:00;26.80;99.90
6054;DHT22;3055;50.886;14.814;2022-08-19T10:53:44;27.00;99.90
6054;DHT22;3055;50.886;14.814;2022-08-19T10:56:13;27.10;99.90
6054;DHT22;3055;50.886;14.814;2022-08-19T10:58:58;27.10;84.10
6054;DHT22;3055;50.886;14.814;2022-08-19T11:01:25;27.20;76.20
6054;DHT22;3055;50.886;14.814;2022-08-19T11:03:52;27.30;65.40
6054;DHT22;3055;50.886;14.814;2022-08-19T11:06:19;27.30;55.50
6054;DHT22;3055;50.886;14.814;2022-08-19T11:08:46;27.30;47.30
6054;DHT22;3055;50.886;14.814;2022-08-19T11:11:14;27.10;49.50
6054;DHT22;3055;50.886;14.814;2022-08-19T11:13:42;27.10;49.80
6054;DHT22;3055;50.886;14.814;2022-08-19T11:16:13;27.20;47.20
6054;DHT22;3055;50.886;14.814;2022-08-19T11:18:43;27.30;27.30
6054;DHT22;3055;50.886;14.814;2022-08-19T11:21:13;27.40;36.00
6054;DHT22;3055;50.886;14.814;2022-08-19T11:23:43;27.70;19.70
6054;DHT22;3055;50.886;14.814;2022-08-19T11:26:10;27.70;13.20
6054;DHT22;3055;50.886;14.814;2022-08-19T11:28:39;28.00;14.10
6054;DHT22;3055;50.886;14.814;2022-08-19T11:31:10;28.30;1.00
6054;DHT22;3055;50.886;14.814;2022-08-19T11:33:37;28.30;1.00
6054;DHT22;3055;50.886;14.814;2022-08-19T11:36:05;28.40;1.00
6054;DHT22;3055;50.886;14.814;2022-08-19T11:38:41;28.30;1.00
6054;DHT22;3055;50.886;14.814;2022-08-19T11:41:09;28.10;1.00
6054;DHT22;3055;50.886;14.814;2022-08-19T11:43:38;28.00;1.00
6054;DHT22;3055;50.886;14.814;2022-08-19T11:46:06;27.90;1.00
6054;DHT22;3055;50.886;14.814;2022-08-19T11:48:35;27.80;1.00
6054;DHT22;3055;50.886;14.814;2022-08-19T11:51:05;27.60;1.00
6054;DHT22;3055;50.886;14.814;2022-08-19T11:53:33;27.50;1.00
6054;DHT22;3055;50.886;14.814;2022-08-19T11:56:00;27.40;1.00
6054;DHT22;3055;50.886;14.814;2022-08-19T11:58:27;27.30;1.00
6054;DHT22;3055;50.886;14.814;2022-08-19T12:00:57;27.50;1.00
6054;DHT22;3055;50.886;14.814;2022-08-19T12:03:24;27.80;1.00
6054;DHT22;3055;50.886;14.814;2022-08-19T12:05:51;27.90;1.00
6054;DHT22;3055;50.886;14.814;2022-08-19T12:08:18;27.90;1.00
6054;DHT22;3055;50.886;14.814;2022-08-19T12:10:45;27.80;1.00
6054;DHT22;3055;50.886;14.814;2022-08-19T12:13:13;27.80;1.00
6054;DHT22;3055;50.886;14.814;2022-08-19T12:15:46;28.00;1.00
6054;DHT22;3055;50.886;14.814;2022-08-19T12:18:15;27.90;1.00
6054;DHT22;3055;50.886;14.814;2022-08-19T12:20:42;27.90;1.00
6054;DHT22;3055;50.886;14.814;2022-08-19T12:23:11;28.00;1.00
6054;DHT22;3055;50.886;14.814;2022-08-19T12:25:44;28.10;1.00
6054;DHT22;3055;50.886;14.814;2022-08-19T12:28:18;28.30;1.00
6054;DHT22;3055;50.886;14.814;2022-08-19T12:30:45;28.50;1.00
6054;DHT22;3055;50.886;14.814;2022-08-19T12:33:12;28.70;1.00
6054;DHT22;3055;50.886;14.814;2022-08-19T12:35:42;28.70;1.00
6054;DHT22;3055;50.886;14.814;2022-08-19T12:38:10;29.10;1.00
6054;DHT22;3055;50.886;14.814;2022-08-19T12:40:38;29.40;1.00
6054;DHT22;3055;50.886;14.814;2022-08-19T12:43:05;29.30;1.00
6054;DHT22;3055;50.886;14.814;2022-08-19T12:45:33;29.20;1.00
6054;DHT22;3055;50.886;14.814;2022-08-19T12:48:01;28.70;1.00
6054;DHT22;3055;50.886;14.814;2022-08-19T12:50:28;28.50;1.00
6054;DHT22;3055;50.886;14.814;2022-08-19T12:52:57;28.30;1.00
6054;DHT22;3055;50.886;14.814;2022-08-19T12:55:24;28.20;1.00
6054;DHT22;3055;50.886;14.814;2022-08-19T12:57:53;28.30;1.00
6054;DHT22;3055;50.886;14.814;2022-08-19T13:00:22;28.40;1.00
6054;DHT22;3055;50.886;14.814;2022-08-19T13:02:51;28.50;1.00
6054;DHT22;3055;50.886;14.814;2022-08-19T13:05:21;28.60;1.00
6054;DHT22;3055;50.886;14.814;2022-08-19T13:07:50;28.70;1.00
6054;DHT22;3055;50.886;14.814;2022-08-19T13:10:20;28.70;1.00
6054;DHT22;3055;50.886;14.814;2022-08-19T13:12:49;28.70;1.00
6054;DHT22;3055;50.886;14.814;2022-08-19T13:15:18;28.90;1.00
6054;DHT22;3055;50.886;14.814;2022-08-19T13:17:46;28.90;1.00
6054;DHT22;3055;50.886;14.814;2022-08-19T13:20:14;28.90;1.00
6054;DHT22;3055;50.886;14.814;2022-08-19T13:22:42;29.10;1.00
6054;DHT22;3055;50.886;14.814;2022-08-19T13:25:11;29.20;1.00
6054;DHT22;3055;50.886;14.814;2022-08-19T13:27:40;29.40;1.00
6054;DHT22;3055;50.886;14.814;2022-08-19T13:30:08;29.60;1.00
6054;DHT22;3055;50.886;14.814;2022-08-19T13:32:53;29.70;1.00
6054;DHT22;3055;50.886;14.814;2022-08-19T13:35:42;29.70;1.00
6054;DHT22;3055;50.886;14.814;2022-08-19T13:38:10;29.80;1.00
6054;DHT22;3055;50.886;14.814;2022-08-19T13:40:39;29.80;1.00
6054;DHT22;3055;50.886;14.814;2022-08-19T13:43:08;29.80;1.00
6054;DHT22;3055;50.886;14.814;2022-08-19T13:45:36;29.80;1.00
6054;DHT22;3055;50.886;14.814;2022-08-19T13:48:07;29.70;1.00
6054;DHT22;3055;50.886;14.814;2022-08-19T13:50:38;29.60;1.00
6054;DHT22;3055;50.886;14.814;2022-08-19T13:53:07;29.40;1.00
6054;DHT22;3055;50.886;14.814;2022-08-19T13:55:35;29.50;1.00
6054;DHT22;3055;50.886;14.814;2022-08-19T13:58:02;29.70;1.00
6054;DHT22;3055;50.886;14.814;2022-08-19T14:00:33;29.90;1.00
6054;DHT22;3055;50.886;14.814;2022-08-19T14:03:00;29.90;1.00
6054;DHT22;3055;50.886;14.814;2022-08-19T14:05:30;30.00;1.00
6054;DHT22;3055;50.886;14.814;2022-08-19T14:07:58;30.00;1.00
6054;DHT22;3055;50.886;14.814;2022-08-19T14:10:26;30.10;1.00
6054;DHT22;3055;50.886;14.814;2022-08-19T14:12:54;30.10;1.00
6054;DHT22;3055;50.886;14.814;2022-08-19T14:15:23;29.70;1.00
6054;DHT22;3055;50.886;14.814;2022-08-19T14:17:52;29.80;1.00
6054;DHT22;3055;50.886;14.814;2022-08-19T14:20:19;30.10;1.00
6054;DHT22;3055;50.886;14.814;2022-08-19T14:22:47;30.50;1.00
6054;DHT22;3055;50.886;14.814;2022-08-19T14:25:16;31.30;1.00
6054;DHT22;3055;50.886;14.814;2022-08-19T14:27:44;32.00;1.00
6054;DHT22;3055;50.886;14.814;2022-08-19T14:30:14;31.90;1.00
6054;DHT22;3055;50.886;14.814;2022-08-19T14:32:41;32.00;1.00
6054;DHT22;3055;50.886;14.814;2022-08-19T14:35:11;32.40;1.00
6054;DHT22;3055;50.886;14.814;2022-08-19T14:37:40;32.40;1.00
6054;DHT22;3055;50.886;14.814;2022-08-19T14:40:08;32.40;1.00
6054;DHT22;3055;50.886;14.814;2022-08-19T14:42:35;32.40;1.00
6054;DHT22;3055;50.886;14.814;2022-08-19T14:45:03;32.00;1.00
6054;DHT22;3055;50.886;14.814;2022-08-19T14:47:31;31.70;1.00
6054;DHT22;3055;50.886;14.814;2022-08-19T14:49:59;31.40;1.00
6054;DHT22;3055;50.886;14.814;2022-08-19T14:52:27;30.90;1.00
6054;DHT22;3055;50.886;14.814;2022-08-19T14:54:54;30.30;1.00
6054;DHT22;3055;50.886;14.814;2022-08-19T14:57:21;30.00;1.00
6054;DHT22;3055;50.886;14.814;2022-08-19T14:59:48;29.80;1.00
6054;DHT22;3055;50.886;14.814;2022-08-19T15:02:15;29.70;1.00
6054;DHT22;3055;50.886;14.814;2022-08-19T15:04:42;29.70;1.00
6054;DHT22;3055;50.886;14.814;2022-08-19T15:07:10;29.70;1.00
6054;DHT22;3055;50.886;14.814;2022-08-19T15:09:38;29.70;1.00
6054;DHT22;3055;50.886;14.814;2022-08-19T15:12:05;29.70;1.00
6054;DHT22;3055;50.886;14.814;2022-08-19T15:14:36;29.70;1.00
6054;DHT22;3055;50.886;14.814;2022-08-19T15:17:04;29.80;1.00
6054;DHT22;3055;50.886;14.814;2022-08-19T15:19:32;30.20;1.00
6054;DHT22;3055;50.886;14.814;2022-08-19T15:22:01;30.90;1.00
6054;DHT22;3055;50.886;14.814;2022-08-19T15:24:28;31.50;1.00
6054;DHT22;3055;50.886;14.814;2022-08-19T15:26:57;31.80;1.00
6054;DHT22;3055;50.886;14.814;2022-08-19T15:29:24;31.90;1.00
6054;DHT22;3055;50.886;14.814;2022-08-19T15:31:51;31.70;1.00
6054;DHT22;3055;50.886;14.814;2022-08-19T15:34:20;31.40;1.00
6054;DHT22;3055;50.886;14.814;2022-08-19T15:36:47;31.10;1.00
6054;DHT22;3055;50.886;14.814;2022-08-19T15:39:14;30.80;1.00
6054;DHT22;3055;50.886;14.814;2022-08-19T15:41:42;30.70;1.00
6054;DHT22;3055;50.886;14.814;2022-08-19T15:44:12;30.60;1.00
6054;DHT22;3055;50.886;14.814;2022-08-19T15:46:42;30.20;1.00
6054;DHT22;3055;50.886;14.814;2022-08-19T15:49:11;29.80;1.00
6054;DHT22;3055;50.886;14.814;2022-08-19T15:51:39;29.20;1.00
6054;DHT22;3055;50.886;14.814;2022-08-19T15:54:10;28.80;1.00
6054;DHT22;3055;50.886;14.814;2022-08-19T15:56:37;28.40;1.00
6054;DHT22;3055;50.886;14.814;2022-08-19T15:59:23;28.10;1.00
6054;DHT22;3055;50.886;14.814;2022-08-19T16:02:08;27.90;1.00
6054;DHT22;3055;50.886;14.814;2022-08-19T16:04:53;27.90;1.00
6054;DHT22;3055;50.886;14.814;2022-08-19T16:07:37;28.00;1.00